createdAt,value
2022-12-25T00:00:21.049Z,97.72
2022-12-25T00:03:09.532Z,97.85
2022-12-25T00:05:40.721Z,97.80
2022-12-25T00:08:10.225Z,97.77
2022-12-25T00:10:44.736Z,97.85
2022-12-25T00:13:13.593Z,97.91
2022-12-25T00:15:42.051Z,98.11
2022-12-25T00:18:10.213Z,97.99
2022-12-25T00:20:38.273Z,98.01
2022-12-25T00:23:06.993Z,98.14
2022-12-25T00:25:35.012Z,98.13
2022-12-25T00:28:03.146Z,98.15
2022-12-25T00:30:31.403Z,98.35
2022-12-25T00:32:59.516Z,98.43
2022-12-25T00:35:28.128Z,98.38
2022-12-25T00:37:56.205Z,98.42
2022-12-25T00:40:24.242Z,98.36
2022-12-25T00:42:52.275Z,98.27
2022-12-25T00:45:20.480Z,98.42
2022-12-25T00:47:48.858Z,98.37
2022-12-25T00:50:18.241Z,98.53
2022-12-25T00:52:46.357Z,98.42
2022-12-25T00:55:14.431Z,98.58
2022-12-25T00:57:42.472Z,98.62
2022-12-25T01:00:11.035Z,98.72
2022-12-25T01:02:39.336Z,98.55
2022-12-25T01:05:08.528Z,98.74
2022-12-25T01:07:36.659Z,98.87
2022-12-25T01:10:23.311Z,98.88
2022-12-25T01:12:52.288Z,98.76
2022-12-25T01:15:20.774Z,98.81
2022-12-25T01:17:48.884Z,98.83
2022-12-25T01:20:17.919Z,98.86
2022-12-25T01:22:46.202Z,98.90
2022-12-25T01:25:14.519Z,99.02
2022-12-25T01:27:42.879Z,98.94
2022-12-25T01:30:11.530Z,99.10
2022-12-25T01:32:39.772Z,99.02
2022-12-25T01:35:08.371Z,99.02
2022-12-25T01:37:36.478Z,99.11
2022-12-25T01:40:05.561Z,99.22
2022-12-25T01:42:33.822Z,99.03
2022-12-25T01:45:30.760Z,99.19
2022-12-25T01:47:59.146Z,99.16
2022-12-25T01:50:28.083Z,99.02
2022-12-25T01:52:58.018Z,99.01
2022-12-25T01:55:27.987Z,98.99
2022-12-25T01:57:56.878Z,98.94
2022-12-25T02:00:25.130Z,98.99
2022-12-25T02:02:53.243Z,98.97
2022-12-25T02:05:27.857Z,98.97
2022-12-25T02:07:59.493Z,98.93
2022-12-25T02:10:27.906Z,98.93
2022-12-25T02:12:56.470Z,99.05
2022-12-25T02:15:34.326Z,99.13
2022-12-25T02:18:33.606Z,99.05
2022-12-25T02:21:30.370Z,99.11
2022-12-25T02:24:44.479Z,98.95
2022-12-25T02:27:33.616Z,98.97
2022-12-25T02:30:10.812Z,99.15
2022-12-25T02:32:38.947Z,99.09
2022-12-25T02:35:15.641Z,99.01
2022-12-25T02:38:04.045Z,99.02
2022-12-25T02:40:42.446Z,99.00
2022-12-25T02:43:41.972Z,99.01
2022-12-25T02:46:34.514Z,99.04
2022-12-25T02:49:27.415Z,99.10
2022-12-25T02:52:24.677Z,99.12
2022-12-25T02:55:22.471Z,99.10
2022-12-25T02:58:13.071Z,98.98
2022-12-25T03:01:05.699Z,99.08
2022-12-25T03:03:58.832Z,99.13
2022-12-25T03:06:44.662Z,99.06
2022-12-25T03:09:39.436Z,98.91
2022-12-25T03:12:37.756Z,98.93
2022-12-25T03:15:27.407Z,98.91
2022-12-25T03:17:59.276Z,98.94
2022-12-25T03:20:46.040Z,98.70
2022-12-25T03:23:36.893Z,98.92
2022-12-25T03:26:24.369Z,99.00
2022-12-25T03:28:52.638Z,98.71
2022-12-25T03:31:34.912Z,99.00
2022-12-25T03:34:27.966Z,99.13
2022-12-25T03:37:26.926Z,99.07
2022-12-25T03:40:39.249Z,99.00
2022-12-25T03:43:38.223Z,98.82
2022-12-25T03:46:30.261Z,98.91
2022-12-25T03:49:26.905Z,98.52
2022-12-25T03:52:17.197Z,98.67
2022-12-25T03:55:06.390Z,98.53
2022-12-25T03:57:54.721Z,98.61
2022-12-25T04:00:41.645Z,98.51
2022-12-25T04:03:29.180Z,98.59
2022-12-25T04:06:16.053Z,98.60
2022-12-25T04:09:02.900Z,98.58
2022-12-25T04:11:49.908Z,98.49
2022-12-25T04:14:37.115Z,98.54
2022-12-25T04:17:24.875Z,98.45
2022-12-25T04:20:12.000Z,98.61
2022-12-25T04:22:58.534Z,98.44
2022-12-25T04:25:45.307Z,98.55
2022-12-25T04:28:31.856Z,98.66
2022-12-25T04:31:19.550Z,98.74
2022-12-25T04:34:06.445Z,98.71
2022-12-25T04:36:34.626Z,98.68
2022-12-25T04:39:03.230Z,98.67
2022-12-25T04:41:31.399Z,98.63
2022-12-25T04:43:59.589Z,98.67
2022-12-25T04:46:27.837Z,98.53
2022-12-25T04:48:57.083Z,98.62
2022-12-25T04:51:26.470Z,98.49
2022-12-25T04:53:55.204Z,98.51
2022-12-25T04:56:23.641Z,98.61
2022-12-25T04:58:51.756Z,98.66
2022-12-25T05:01:19.986Z,98.50
2022-12-25T05:03:48.407Z,98.42
2022-12-25T05:06:16.495Z,98.65
2022-12-25T05:08:44.806Z,98.48
2022-12-25T05:11:15.155Z,98.57
2022-12-25T05:13:43.667Z,98.71
2022-12-25T05:16:18.452Z,98.57
2022-12-25T05:18:50.401Z,98.45
2022-12-25T05:21:20.358Z,98.42
2022-12-25T05:23:52.610Z,98.44
2022-12-25T05:26:24.370Z,98.53
2022-12-25T05:28:52.886Z,98.60
2022-12-25T05:31:22.735Z,98.39
2022-12-25T05:33:52.689Z,98.41
2022-12-25T05:36:21.097Z,98.45
2022-12-25T05:38:50.919Z,98.40
2022-12-25T05:41:22.085Z,98.50
2022-12-25T05:43:50.220Z,98.41
2022-12-25T05:46:18.574Z,98.57
2022-12-25T05:48:46.715Z,98.48
2022-12-25T05:51:15.469Z,98.38
2022-12-25T05:53:43.970Z,98.43
2022-12-25T05:56:12.401Z,98.48
2022-12-25T05:58:41.504Z,98.42
2022-12-25T06:01:16.207Z,98.41
2022-12-25T06:03:44.515Z,98.21
2022-12-25T06:06:12.938Z,98.50
2022-12-25T06:08:41.426Z,98.56
2022-12-25T06:11:10.667Z,98.62
2022-12-25T06:13:38.869Z,98.59
2022-12-25T06:16:09.346Z,98.47
2022-12-25T06:18:38.955Z,98.42
2022-12-25T06:21:10.234Z,98.17
2022-12-25T06:23:39.556Z,98.32
2022-12-25T06:26:13.773Z,98.16
2022-12-25T06:28:42.609Z,98.17
2022-12-25T06:31:15.879Z,98.45
2022-12-25T06:33:45.231Z,98.52
2022-12-25T06:36:26.803Z,98.57
2022-12-25T06:38:55.168Z,98.33
2022-12-25T06:41:25.556Z,98.28
2022-12-25T06:43:55.941Z,98.14
2022-12-25T06:46:26.099Z,97.92
2022-12-25T06:48:55.035Z,97.87
2022-12-25T06:51:28.782Z,97.98
2022-12-25T06:53:57.312Z,97.86
2022-12-25T06:56:28.202Z,97.85
2022-12-25T06:58:59.073Z,98.07
2022-12-25T07:01:34.574Z,97.94
2022-12-25T07:04:21.675Z,97.81
2022-12-25T07:06:49.780Z,97.73
2022-12-25T07:09:18.146Z,97.84
2022-12-25T07:11:47.327Z,97.81
2022-12-25T07:14:23.483Z,97.81
2022-12-25T07:16:52.558Z,98.02
2022-12-25T07:19:20.733Z,97.88
2022-12-25T07:21:48.962Z,97.91
2022-12-25T07:24:22.494Z,97.91
2022-12-25T07:26:51.750Z,97.94
2022-12-25T07:29:20.394Z,97.76
2022-12-25T07:31:48.871Z,98.01
2022-12-25T07:34:18.380Z,97.85
2022-12-25T07:36:46.914Z,97.74
2022-12-25T07:39:16.486Z,97.92
2022-12-25T07:41:44.872Z,97.85
2022-12-25T07:44:18.886Z,97.77
2022-12-25T07:46:48.055Z,97.80
2022-12-25T07:49:16.288Z,97.83
2022-12-25T07:51:44.706Z,97.77
2022-12-25T07:54:13.360Z,97.86
2022-12-25T07:56:42.203Z,97.77
2022-12-25T07:59:10.378Z,97.97
2022-12-25T08:01:38.804Z,97.97
2022-12-25T08:04:08.362Z,97.76
2022-12-25T08:06:36.675Z,98.13
2022-12-25T08:09:08.656Z,97.91
2022-12-25T08:11:37.889Z,97.79
2022-12-25T08:14:08.233Z,98.04
2022-12-25T08:16:36.609Z,98.00
2022-12-25T08:19:04.963Z,97.85
2022-12-25T08:21:33.116Z,97.93
2022-12-25T08:24:02.800Z,98.08
2022-12-25T08:26:32.203Z,98.25
2022-12-25T08:29:00.266Z,98.39
2022-12-25T08:31:29.881Z,98.19
2022-12-25T08:34:11.789Z,98.47
2022-12-25T08:36:45.398Z,98.40
2022-12-25T08:39:14.133Z,98.19
2022-12-25T08:41:42.365Z,98.20
2022-12-25T08:44:12.585Z,98.04
2022-12-25T08:46:41.135Z,98.14
2022-12-25T08:49:09.318Z,98.09
2022-12-25T08:51:37.409Z,98.04
2022-12-25T08:54:05.629Z,98.00
2022-12-25T08:56:33.709Z,97.84
2022-12-25T08:59:01.940Z,98.06
2022-12-25T09:01:30.272Z,98.05
2022-12-25T09:03:58.595Z,97.86
2022-12-25T09:06:26.898Z,97.73
2022-12-25T09:08:55.124Z,97.94
2022-12-25T09:11:24.558Z,97.65
2022-12-25T09:13:53.704Z,97.48
2022-12-25T09:16:22.778Z,97.65
2022-12-25T09:18:51.223Z,97.77
2022-12-25T09:21:20.915Z,97.43
2022-12-25T09:23:49.117Z,97.20
2022-12-25T09:26:19.178Z,97.30
2022-12-25T09:28:51.870Z,97.33
2022-12-25T09:31:23.326Z,97.28
2022-12-25T09:33:55.709Z,97.16
2022-12-25T09:36:24.704Z,97.23
2022-12-25T09:38:53.124Z,97.33
2022-12-25T09:41:33.847Z,97.42
2022-12-25T09:44:02.697Z,97.37
2022-12-25T09:46:41.679Z,97.20
2022-12-25T09:49:20.577Z,97.10
2022-12-25T09:51:59.894Z,97.16
2022-12-25T09:55:08.485Z,97.01
2022-12-25T09:57:36.677Z,97.24
2022-12-25T10:00:17.131Z,96.90
2022-12-25T10:03:04.324Z,96.86
2022-12-25T10:05:41.877Z,96.95
2022-12-25T10:08:41.594Z,96.89
2022-12-25T10:11:25.165Z,96.70
2022-12-25T10:14:24.130Z,96.84
2022-12-25T10:17:15.754Z,96.97
2022-12-25T10:19:47.381Z,96.61
2022-12-25T10:22:28.433Z,96.41
2022-12-25T10:24:59.603Z,96.30
2022-12-25T10:27:35.260Z,96.20
2022-12-25T10:30:17.475Z,96.42
2022-12-25T10:32:47.608Z,96.54
2022-12-25T10:35:21.529Z,96.53
2022-12-25T10:37:59.100Z,96.80
2022-12-25T10:40:47.384Z,96.67
2022-12-25T10:43:25.103Z,96.57
2022-12-25T10:45:53.411Z,96.56
2022-12-25T10:48:30.841Z,96.10
2022-12-25T10:50:59.392Z,96.43
2022-12-25T10:53:29.572Z,96.49
2022-12-25T10:56:08.828Z,96.43
2022-12-25T10:58:37.191Z,96.29
2022-12-25T11:01:07.617Z,96.66
2022-12-25T11:03:41.645Z,96.47
2022-12-25T11:06:26.745Z,95.88
2022-12-25T11:09:01.296Z,96.12
2022-12-25T11:11:30.252Z,95.93
2022-12-25T11:14:01.999Z,95.68
2022-12-25T11:16:38.259Z,95.73
2022-12-25T11:19:30.990Z,95.92
2022-12-25T11:22:01.973Z,95.79
2022-12-25T11:24:33.998Z,95.73
2022-12-25T11:27:06.580Z,95.42
2022-12-25T11:29:55.233Z,95.41
2022-12-25T11:32:28.685Z,95.47
2022-12-25T11:34:58.482Z,95.69
2022-12-25T11:37:45.234Z,95.43
2022-12-25T11:40:29.056Z,95.48
2022-12-25T11:43:10.854Z,95.40
2022-12-25T11:45:45.438Z,95.27
2022-12-25T11:48:19.858Z,95.03
2022-12-25T11:50:57.628Z,94.82
2022-12-25T11:53:31.567Z,94.83
2022-12-25T11:56:06.277Z,95.01
2022-12-25T11:58:47.098Z,94.73
2022-12-25T12:01:41.853Z,94.61
2022-12-25T12:04:29.461Z,94.41
2022-12-25T12:07:14.591Z,94.21
2022-12-25T12:10:01.685Z,93.41
2022-12-25T12:12:52.061Z,94.06
2022-12-25T12:15:38.736Z,94.10
2022-12-25T12:18:28.683Z,94.14
2022-12-25T12:21:17.754Z,93.84
2022-12-25T12:24:04.219Z,93.09
2022-12-25T12:26:38.193Z,93.34
2022-12-25T12:29:22.046Z,93.09
2022-12-25T12:31:51.441Z,92.81
2022-12-25T12:34:38.017Z,92.90
2022-12-25T12:37:07.764Z,92.91
2022-12-25T12:39:39.538Z,92.84
2022-12-25T12:42:21.252Z,92.87
2022-12-25T12:44:50.546Z,92.87
2022-12-25T12:47:38.209Z,92.78
2022-12-25T12:50:08.237Z,92.64
2022-12-25T12:52:38.799Z,92.50
2022-12-25T12:55:15.040Z,92.64
2022-12-25T12:57:43.511Z,92.46
2022-12-25T13:00:19.420Z,92.73
2022-12-25T13:03:23.193Z,92.68
2022-12-25T13:06:16.364Z,92.61
2022-12-25T13:09:02.924Z,92.26
2022-12-25T13:11:41.017Z,92.08
2022-12-25T13:14:16.414Z,92.61
2022-12-25T13:16:47.751Z,92.43
2022-12-25T13:19:24.544Z,92.25
2022-12-25T13:21:54.293Z,92.52
2022-12-25T13:24:26.870Z,92.76
2022-12-25T13:26:55.885Z,92.73
2022-12-25T13:29:33.744Z,92.56
2022-12-25T13:32:04.021Z,92.24
2022-12-25T13:34:42.125Z,92.21
2022-12-25T13:37:15.195Z,92.10
2022-12-25T13:39:54.699Z,91.99
2022-12-25T13:42:27.946Z,91.98
2022-12-25T13:44:59.750Z,92.18
2022-12-25T13:47:40.423Z,92.24
2022-12-25T13:50:23.375Z,91.87
2022-12-25T13:52:52.688Z,91.78
2022-12-25T13:55:26.622Z,91.82
2022-12-25T13:57:56.298Z,91.55
2022-12-25T14:00:49.640Z,91.19
2022-12-25T14:03:41.408Z,91.11
2022-12-25T14:06:27.901Z,91.25
2022-12-25T14:08:57.185Z,91.35
2022-12-25T14:11:28.478Z,91.28
2022-12-25T14:14:08.199Z,91.05
2022-12-25T14:16:36.749Z,90.84
2022-12-25T14:19:24.468Z,90.75
2022-12-25T14:22:10.929Z,90.80
2022-12-25T14:24:40.641Z,90.92
2022-12-25T14:27:28.189Z,90.79
2022-12-25T14:29:59.159Z,90.64
2022-12-25T14:32:31.049Z,90.74
2022-12-25T14:35:06.096Z,90.70
2022-12-25T14:37:34.747Z,90.58
2022-12-25T14:40:21.844Z,90.20
2022-12-25T14:43:03.905Z,90.26
2022-12-25T14:45:34.128Z,90.13
2022-12-25T14:48:22.847Z,89.87
2022-12-25T14:51:02.317Z,89.98
2022-12-25T14:53:55.416Z,89.80
2022-12-25T14:56:26.111Z,89.75
2022-12-25T14:58:57.836Z,89.26
2022-12-25T15:01:37.047Z,88.94
2022-12-25T15:04:11.268Z,88.49
2022-12-25T15:06:51.399Z,88.29
2022-12-25T15:09:20.009Z,88.28
2022-12-25T15:11:53.037Z,88.49
2022-12-25T15:14:24.493Z,88.76
2022-12-25T15:16:59.643Z,88.57
2022-12-25T15:19:38.085Z,88.38
2022-12-25T15:22:07.076Z,88.51
2022-12-25T15:24:35.579Z,88.47
2022-12-25T15:27:05.577Z,88.49
2022-12-25T15:32:23.979Z,88.45
2022-12-25T15:34:53.279Z,88.46
2022-12-25T15:37:21.487Z,88.25
2022-12-25T15:39:49.722Z,88.18
2022-12-25T15:42:21.591Z,88.45
2022-12-25T15:44:50.615Z,88.19
2022-12-25T15:47:23.086Z,87.80
2022-12-25T15:49:51.653Z,87.66
2022-12-25T15:52:19.794Z,87.55
2022-12-25T15:54:48.009Z,87.45
2022-12-25T15:57:20.770Z,87.74
2022-12-25T15:59:49.096Z,87.87
2022-12-25T16:02:20.579Z,87.94
2022-12-25T16:04:51.111Z,87.77
2022-12-25T16:07:26.027Z,87.76
2022-12-25T16:09:54.165Z,88.05
2022-12-25T16:12:22.378Z,87.63
2022-12-25T16:14:50.510Z,87.78
2022-12-25T16:17:19.180Z,88.24
2022-12-25T16:19:47.565Z,88.20
2022-12-25T16:22:25.585Z,87.81
2022-12-25T16:24:53.930Z,87.57
2022-12-25T16:27:22.199Z,87.80
2022-12-25T16:29:50.499Z,87.97
2022-12-25T16:32:19.034Z,88.08
2022-12-25T16:34:48.665Z,88.40
2022-12-25T16:37:16.827Z,88.36
2022-12-25T16:39:44.993Z,88.13
2022-12-25T16:42:13.551Z,88.58
2022-12-25T16:44:41.778Z,88.52
2022-12-25T16:47:10.033Z,88.75
2022-12-25T16:49:38.520Z,88.81
2022-12-25T16:52:06.673Z,88.88
2022-12-25T16:54:34.892Z,89.07
2022-12-25T16:57:03.131Z,88.98
2022-12-25T16:59:31.585Z,89.07
2022-12-25T17:01:59.814Z,89.14
2022-12-25T17:04:28.548Z,89.33
2022-12-25T17:06:56.917Z,89.53
2022-12-25T17:09:25.126Z,89.65
2022-12-25T17:11:53.284Z,89.58
2022-12-25T17:14:21.352Z,89.73
2022-12-25T17:16:49.614Z,89.57
2022-12-25T17:19:21.166Z,89.65
2022-12-25T17:21:51.052Z,89.94
2022-12-25T17:24:20.132Z,90.12
2022-12-25T17:26:51.085Z,90.48
2022-12-25T17:29:22.441Z,90.41
2022-12-25T17:31:52.778Z,90.34
2022-12-25T17:34:21.642Z,90.24
2022-12-25T17:36:51.072Z,90.56
2022-12-25T17:39:19.532Z,90.64
2022-12-25T17:41:50.610Z,90.65
2022-12-25T17:44:21.351Z,90.89
2022-12-25T17:46:51.283Z,90.78
2022-12-25T17:49:22.023Z,90.62
2022-12-25T17:51:50.593Z,90.81
2022-12-25T17:54:19.541Z,91.06
2022-12-25T17:56:49.624Z,90.82
2022-12-25T17:59:19.032Z,91.17
2022-12-25T18:01:49.385Z,90.92
2022-12-25T18:04:18.278Z,91.00
2022-12-25T18:06:46.764Z,91.26
2022-12-25T18:09:15.176Z,91.21
2022-12-25T18:11:44.240Z,91.26
2022-12-25T18:14:16.620Z,91.32
2022-12-25T18:16:45.600Z,91.27
2022-12-25T18:19:16.483Z,91.47
2022-12-25T18:21:44.911Z,91.42
2022-12-25T18:24:13.204Z,91.52
2022-12-25T18:26:41.316Z,91.54
2022-12-25T18:29:09.497Z,91.49
2022-12-25T18:31:37.750Z,91.63
2022-12-25T18:34:06.304Z,91.52
2022-12-25T18:36:34.519Z,91.52
2022-12-25T18:39:02.851Z,91.49
2022-12-25T18:41:31.056Z,91.50
2022-12-25T18:43:59.958Z,91.58
2022-12-25T18:46:28.596Z,91.60
2022-12-25T18:48:57.404Z,91.71
2022-12-25T18:51:29.941Z,91.81
2022-12-25T18:54:03.107Z,91.56
2022-12-25T18:56:31.301Z,91.44
2022-12-25T18:59:00.870Z,91.49
2022-12-25T19:01:30.202Z,91.57
2022-12-25T19:04:04.610Z,91.68
2022-12-25T19:06:33.803Z,91.73
2022-12-25T19:09:09.239Z,91.57
2022-12-25T19:11:46.099Z,91.86
2022-12-25T19:14:15.294Z,91.79
2022-12-25T19:16:44.071Z,91.93
2022-12-25T19:19:14.326Z,91.97
2022-12-25T19:21:42.538Z,91.96
2022-12-25T19:24:11.168Z,91.88
2022-12-25T19:26:39.581Z,91.98
2022-12-25T19:29:07.763Z,92.23
2022-12-25T19:31:39.017Z,92.20
2022-12-25T19:34:08.856Z,92.22
2022-12-25T19:36:39.233Z,92.09
2022-12-25T19:39:08.699Z,92.11
2022-12-25T19:41:37.461Z,92.08
2022-12-25T19:44:05.918Z,92.19
2022-12-25T19:46:37.039Z,92.41
2022-12-25T19:49:05.598Z,92.39
2022-12-25T19:51:37.553Z,92.39
2022-12-25T19:54:06.653Z,92.09
2022-12-25T19:56:35.001Z,92.48
2022-12-25T19:59:03.407Z,92.32
2022-12-25T20:01:33.100Z,92.40
2022-12-25T20:04:03.320Z,92.25
2022-12-25T20:06:33.846Z,92.42
2022-12-25T20:09:05.691Z,92.52
2022-12-25T20:11:35.952Z,92.34
2022-12-25T20:14:05.549Z,92.34
2022-12-25T20:16:37.094Z,92.29
2022-12-25T20:19:06.115Z,92.49
2022-12-25T20:21:34.356Z,92.42
2022-12-25T20:24:02.623Z,92.61
2022-12-25T20:26:32.238Z,92.57
2022-12-25T20:29:00.558Z,92.31
2022-12-25T20:31:31.652Z,92.41
2022-12-25T20:34:10.310Z,92.50
2022-12-25T20:36:38.570Z,92.49
2022-12-25T20:39:10.219Z,92.61
2022-12-25T20:41:40.579Z,92.82
2022-12-25T20:44:10.347Z,92.67
2022-12-25T20:46:39.387Z,92.85
2022-12-25T20:49:08.243Z,92.73
2022-12-25T20:51:36.434Z,92.52
2022-12-25T20:54:09.595Z,92.54
2022-12-25T20:56:37.912Z,92.65
2022-12-25T20:59:06.364Z,92.58
2022-12-25T21:01:34.619Z,92.64
2022-12-25T21:04:03.011Z,92.74
2022-12-25T21:06:31.164Z,92.74
2022-12-25T21:09:01.213Z,92.54
2022-12-25T21:11:31.466Z,92.45
2022-12-25T21:13:59.671Z,92.67
2022-12-25T21:16:28.732Z,92.59
2022-12-25T21:18:57.040Z,92.55
2022-12-25T21:21:25.442Z,92.62
2022-12-25T21:23:56.977Z,92.89
2022-12-25T21:26:29.034Z,92.78
2022-12-25T21:29:00.384Z,92.66
2022-12-25T21:31:29.902Z,92.40
2022-12-25T21:33:58.131Z,92.67
2022-12-25T21:36:34.022Z,92.52
2022-12-25T21:39:19.874Z,92.86
2022-12-25T21:41:48.150Z,92.91
2022-12-25T21:44:16.206Z,92.62
2022-12-25T21:46:44.353Z,92.36
2022-12-25T21:49:12.595Z,92.63
2022-12-25T21:51:59.654Z,92.61
2022-12-25T21:54:27.937Z,92.90
2022-12-25T21:56:56.162Z,92.34
2022-12-25T21:59:24.464Z,92.73
2022-12-25T22:01:53.267Z,92.73
2022-12-25T22:04:23.127Z,92.57
2022-12-25T22:07:10.904Z,92.55
2022-12-25T22:09:39.556Z,92.64
2022-12-25T22:12:33.533Z,92.86
2022-12-25T22:15:07.128Z,92.97
2022-12-25T22:17:59.803Z,92.95
2022-12-25T22:20:34.846Z,92.86
2022-12-25T22:23:03.544Z,93.01
2022-12-25T22:25:32.019Z,92.73
2022-12-25T22:28:00.361Z,92.86
2022-12-25T22:30:29.725Z,92.87
2022-12-25T22:32:58.474Z,93.00
2022-12-25T22:35:26.704Z,92.97
2022-12-25T22:37:54.892Z,92.85
2022-12-25T22:40:23.011Z,92.53
2022-12-25T22:42:54.820Z,93.05
2022-12-25T22:45:24.170Z,92.98
2022-12-25T22:47:52.268Z,92.67
2022-12-25T22:50:20.467Z,92.67
2022-12-25T22:52:48.719Z,92.80
2022-12-25T22:55:18.912Z,92.70
2022-12-25T22:57:49.010Z,92.72
2022-12-25T23:00:17.276Z,92.72
2022-12-25T23:02:45.496Z,92.70
2022-12-25T23:05:13.820Z,92.67
2022-12-25T23:07:42.018Z,92.69
2022-12-25T23:10:10.786Z,93.05
2022-12-25T23:12:57.552Z,92.83
2022-12-25T23:15:27.714Z,92.62
2022-12-25T23:18:14.370Z,92.59
2022-12-25T23:21:01.065Z,92.65
2022-12-25T23:23:48.585Z,92.95
2022-12-25T23:26:18.397Z,93.13
2022-12-25T23:29:05.991Z,93.02
2022-12-25T23:31:38.172Z,93.00
2022-12-25T23:34:08.303Z,93.02
2022-12-25T23:36:36.666Z,93.28
2022-12-25T23:39:10.144Z,93.06
2022-12-25T23:41:40.837Z,93.16
2022-12-25T23:44:10.811Z,93.34
2022-12-25T23:46:40.453Z,93.65
2022-12-25T23:49:09.691Z,93.44
2022-12-25T23:51:39.396Z,93.31
2022-12-25T23:54:07.956Z,93.30
2022-12-25T23:56:36.804Z,93.24
2022-12-25T23:59:07.496Z,92.98
